Brockway, MT (59214)

21:36 MDT le 17 septembre 2014 (GMT -0600)
Dawson Community | Change Station
CLOSE
Current Station
Aéroport
Location: Glendive,
Altitude: 2457 ft
Stations météo à proximité

Alt. 2457 ft 47.14 °N, 104.81 °W | Updated 21 minutes ago

Partiellement nuageux
Partiellement nuageux
61 ° F
Paraît 61 ° F
N
8
Vent Variable Vent de ESE

Aujourd'hui
Haut(e) -- | Bas -- ° F
--% Risque de précip.
Hier
Haut(e) -- | Bas -- ° F
Precip. -- pouce
6:43 AM 7:11 PM
Lune descendante, 30% visible
Pression 29.90 pouce
Visibilité 10.0 Miles terrestres
Nuages Ciel dégagé
Point de rosée 46 ° F
Humidité 59%
Précipitations 0.00 pouce
Profondeur de la couche neigeuse 1 in , 0 in , 0 in
UV 0 sur 12
Pollen 5.40 sur 12
Qualité de l'air Non disponible.
Flu Activity Non disponible.
METAR KGDV 180315Z AUTO 12007KT 10SM CLR 16/08 A2990 RMK AO1

More Conditions Fewer Conditions

Pression 29.90 pouce
Visibilité 10.0 Miles terrestres
Nuages Ciel dégagé
Point de rosée 46 ° F
Humidité 59%
Précipitations 0.00 pouce
Profondeur de la couche neigeuse 1 in , 0 in , 0 in
UV 0 sur 12
Pollen 5.40 sur 12
Qualité de l'air Non disponible.
Flu Activity Non disponible.
METAR KGDV 180315Z AUTO 12007KT 10SM CLR 16/08 A2990 RMK AO1

More Conditions Fewer Conditions

10-Day Weather Forecast

Almanac

Astronomie

Sep. 17, 2014 Lever Coucher
Temps réel 06:43 MDT 19:11 MDT
Crépuscule civil 06:12 MDT 19:41 MDT
Crépuscule nautique 05:36 MDT 20:17 MDT
Crépuscule astronomique 04:58 MDT 20:55 MDT
Lune 00:28 MDT (9/17) 15:38 MDT (9/17)
Durée de lumière visible 13h 28m
Longueur du jour
12h 27m
Tomorrow will be 3m 21s shorter.
Lune descendante, 30% of the Moon is Illuminated
Aujourd'hui
Lune descendante
Sep 24
Nouveau
Oct 1
Premier quartier
Oct 8
Pleine lune
Oct 15
Dernier quartier

Extrêmes aujourd'hui

State Highs State Lows

Community

WunderPhotos

Upload Photos

1,754,283 Photos téléchargées !

Nearby

Épaisseur de neige

Station Depth Altitude
Porcupine 1 in 6500 ft
Garver Creek 0 in 4250 ft
Short Creek 0 in 7000 ft
Fisher Creek 1 in 9100 ft
Brackett Creek 0 in 7320 ft

Activité sismique

Ville Distance Mag. Time & Date
No recent earthquake activity has been reported nearby.
Minimum magnitude displayed is 2.5.

Températures des eaux côtières

Lieu Température
Aucun rapport de station

Stations météo à proximité